Galt, MO (64641)

2:27 PM CDT on April 26, 2017 (GMT -0500)
Trenton | | Change Station

Elev 827 ft 40.07 °N, 93.58 °W | Updated 19 seconds ago

Overcast
Overcast
50.5 °F
Feels Like 50.5 °F
N
0.0
Wind Variable Wind from NW

Today
High -- | Low -- °F
--% Chance of Precip.
Yesterday
High -- | Low -- °F
Precip. -- in
Pressure 29.60 in
Visibility 10.0 miles
Clouds Overcast 1800 ft
Dew Point 43 °F
Humidity 78%
Rainfall 0.11 in
Snow Depth Not available.
6:19 AM 8:03 PM
New Moon, 0% visible
METAR KLWD 261853Z AUTO 31012G16KT 10SM OVC018 09/04 A2959 RMK AO2 SLP022 T00890044
Pressure 29.60 in
Visibility 10.0 miles
Clouds Overcast 1800 ft
Dew Point 43 °F
Humidity 78%
Rainfall 0.11 in
Snow Depth Not available.
6:19 AM 8:03 PM
New Moon, 0% visible
METAR KLWD 261853Z AUTO 31012G16KT 10SM OVC018 09/04 A2959 RMK AO2 SLP022 T00890044

Get Severe Weather Alerts

Thanks for signing up!

Be on the lookout for a verification email in your inbox.

You'll start receiving the daily forecast at 8 AM.

×

10-Day Weather Forecast

Almanac

Astronomy

Apr. 26, 2017 Rise Set
Actual Time
Civil Twilight
Nautical Twilight
Astronomical Twilight
Moon
Length of Visible Light
Length of Day
Tomorrow will be .
, % of the Moon is Illuminated

Today's Extremes

State Highs State Lows

Community

WunderPhotos

WunderBlog® & News

Nearby

Air Quality

  Air Quality AQ Index Pollutant
Not available.

Snow Depth

Station Depth Elevation

Earthquake Activity

City Distance Mag. Time & Date
Minimum magnitude displayed is 2.5.

Coastal Water Temperatures

Place Temperature

Stations

Nearby Weather Stations

Station Location Temp. Windchill Dew Point Humidity Wind Precip. Elev Updated Type
                   

Watches & Warnings

There are currently no watches in effect.